Flight Track Log - Related Links

Times and Time Zones

All times are in EDT time to prevent confusion due to time zone crossing. See the EJA922 flight status page for this flight to view local times or setup timezone preferences in your user account.

Time Position Orientation Groundspeed Altitude Reporting Facility
EDT Latitude Longitude Course Direction KTS MPH feet Rate Location/Type
Mon 08:21:02 AM 41.0833 -73.7167 270° West 180 207 1,600  Level New York TRACON
Mon 08:22:02 AM 41.0833 -73.8000 270° West 212 244 4,800 3,333 Climbing New York TRACON
Mon 08:23:08 AM 41.0500 -73.8833 242° Southwest 278 320 8,600 3,143 Climbing New York TRACON
Mon 08:24:08 AM 41.0000 -73.9833 236° Southwest 292 336 11,400 2,714 Climbing New York TRACON
Mon 08:25:14 AM 40.9833 -74.1000 259° West 316 364 14,300 2,000 Climbing New York TRACON
Mon 08:26:14 AM 40.9667 -74.2167 259° West 338 389 15,600 976 Climbing New York TRACON
Mon 08:28:00 AM 40.9261 -74.4183 255° West 344 396 17,000 506 Climbing New York Center
Mon 08:29:00 AM 40.9053 -74.5489 258° West 344 396 17,000 50 Level New York Center
Mon 08:30:00 AM 40.8853 -74.6575 256° West 336 387 17,100 850 Climbing New York Center
Mon 08:31:00 AM 40.8619 -74.7906 257° West 341 392 18,700 1,800 Climbing New York Center
Mon 08:32:00 AM 40.8436 -74.8994 257° West 341 392 20,700 1,650 Climbing New York Center
Mon 08:33:00 AM 40.8200 -75.0350 257° West 354 407 22,000 1,500 Climbing New York Center
Mon 08:34:00 AM 40.7961 -75.1761 257° West 379 436 23,700 1,950 Climbing New York Center
Mon 08:35:00 AM 40.7714 -75.3361 259° West 402 463 25,900 1,850 Climbing New York Center
Mon 08:36:00 AM 40.7369 -75.4653 251° West 414 476 27,400 1,600 Climbing New York Center
Mon 08:37:00 AM 40.6856 -75.6069 244° Southwest 424 488 29,100 1,650 Climbing New York Center
Mon 08:38:00 AM 40.6292 -75.7561 244° Southwest 437 503 30,700 1,700 Climbing New York Center
Mon 08:39:00 AM 40.5728 -75.9050 244° Southwest 447 514 32,500 2,250 Climbing New York Center
Mon 08:40:00 AM 40.5122 -76.0506 241° Southwest 454 522 35,200 2,150 Climbing New York Center
Mon 08:41:00 AM 40.4578 -76.1964 244° Southwest 454 522 36,800 1,400 Climbing New York Center
Mon 08:42:00 AM 40.4011 -76.3392 243° Southwest 454 522 38,000 600 Climbing New York Center
Mon 08:43:00 AM 40.3561 -76.4964 249° West 460 529 38,000  Level New York Center
Mon 08:44:00 AM 40.3144 -76.6617 252° West 465 535 38,000  Level New York Center
Mon 08:45:00 AM 40.2683 -76.8319 251° West 485 558 38,000  Level New York Center
Mon 08:46:00 AM 40.2264 -76.9994 252° West 497 572 38,000  Level New York Center
Mon 08:47:00 AM 40.1800 -77.1667 250° West 497 572 38,000  Level New York Center
Mon 08:48:00 AM 40.1550 -77.3544 260° West 485 558 38,000  Level New York Center
Mon 08:50:30 AM 40.1431 -77.7875 268° West 476 548 38,000  Level Cleveland Center
Mon 08:51:32 AM 40.1389 -77.9467 268° West 474 545 38,000  Level Cleveland Center
Mon 08:52:34 AM 40.1339 -78.1169 268° West 472 543 38,000  Level Cleveland Center
Mon 08:53:36 AM 40.1267 -78.3228 267° West 473 544 38,000 -48 Level Cleveland Center
Mon 08:54:38 AM 40.1219 -78.4919 268° West 470 541 37,900 -774 Descending Cleveland Center
Mon 08:55:40 AM 40.1156 -78.6639 267° West 475 547 36,400 -1,694 Descending Cleveland Center
Mon 08:56:42 AM 40.1092 -78.8372 267° West 479 551 34,400 -1,935 Descending Cleveland Center
Mon 08:57:44 AM 40.1028 -79.0139 267° West 497 572 32,400 -1,161 Descending Cleveland Center
Mon 08:58:46 AM 40.0967 -79.1903 267° West 490 564 32,000 -194 Descending Cleveland Center
Mon 08:59:48 AM 40.0875 -79.4022 267° West 496 571 32,000  Level Cleveland Center
Mon 09:00:51 AM 40.0794 -79.5856 267° West 504 580 32,000  Level Cleveland Center
Mon 09:01:53 AM 40.0708 -79.7686 267° West 505 581 32,000  Level Cleveland Center
Mon 09:02:55 AM 40.0622 -79.9519 267° West 504 580 32,000 -532 Level Cleveland Center
Mon 09:03:57 AM 40.0544 -80.1356 267° West 504 580 30,900 -1,500 Descending Cleveland Center
Mon 09:04:59 AM 40.0447 -80.3172 266° West 499 574 28,900 -1,935 Descending Cleveland Center
Mon 09:06:01 AM 40.0347 -80.4986 266° West 500 575 26,900 -2,177 Descending Cleveland Center
Mon 09:07:03 AM 40.0236 -80.7050 266° West 475 547 24,400 -2,177 Descending Cleveland Center
Mon 09:08:05 AM 40.0083 -80.8683 263° West 458 527 22,400 -1,161 Descending Cleveland Center
Mon 09:09:07 AM 39.9756 -81.0289 255° West 458 527 22,000 -919 Descending Cleveland Center
Mon 09:10:09 AM 39.9447 -81.1928 256° West 466 536 20,500 -1,548 Descending Cleveland Center
Mon 09:11:11 AM 39.9139 -81.3522 256° West 457 526 18,800 -1,776 Descending Cleveland Center
Mon 09:12:14 AM 39.8789 -81.5233 255° West 442 509 16,800 -1,680 Descending Cleveland Center
Mon 09:13:16 AM 39.8494 -81.6697 255° West 424 488 15,300 -1,500 Descending Cleveland Center
Mon 09:14:18 AM 39.8211 -81.8108 255° West 409 471 13,700 -1,667 Descending Cleveland Center
Mon 09:15:04 AM 39.7961 -81.9381 256° West 400 460 12,300 -1,714 Descending Indianapolis Center
Mon 09:15:35 AM 39.7811 -82.0089 255° West 401 461 11,500 -1,304 Descending Indianapolis Center
Mon 09:16:36 AM 39.7525 -82.1478 255° West 399 459 10,300 -732 Descending Indianapolis Center
Mon 09:17:38 AM 39.7325 -82.2683 258° West 347 399 10,000 -992 Descending Indianapolis Center
Mon 09:18:43 AM 39.8022 -82.3228 329° Northwest 258 297 8,200 -1,694 Descending Indianapolis Center
Mon 09:19:42 AM 39.8664 -82.3472 344° North 274 315 6,500 -1,967 Descending Indianapolis Center
Mon 09:19:44 AM 39.8792 -82.3533 340° North 272 313 6,200 -1,579 Descending Indianapolis Center
Mon 09:20:39 AM 39.9378 -82.3786 342° North 263 303 5,000 -1,200 Descending Indianapolis Center
Mon 09:20:44 AM 39.9367 -82.3767 127° Southeast 270 311 5,000  Level Indianapolis Center
Mon 09:21:46 AM 40.0086 -82.4342 329° Northwest 261 300 5,000  Level Indianapolis Center
Mon 09:22:41 AM 40.0606 -82.4847 323° Northwest 255 293 5,000  Level Indianapolis Center
Mon 09:22:48 AM 40.0658 -82.4903 321° Northwest 259 298 5,000  Level Indianapolis Center
Mon 09:23:36 AM 40.0925 -82.5469 302° West 221 254 5,000  Level Indianapolis Center
Mon 09:23:50 AM 40.0933 -82.5586 275° West 228 262 5,000 -885 Level Indianapolis Center
Mon 09:24:37 AM 40.0897 -82.6231 266° West 204 235 4,100 -968 Descending Indianapolis Center
Mon 09:24:52 AM 40.0900 -82.6353 272° West 212 244 4,000 -78 Descending Indianapolis Center
Mon 09:25:54 AM 40.0881 -82.7147 268° West 215 247 4,000  Level Indianapolis Center
Mon 09:26:51 AM 40.0858 -82.8003 268° West 220 253 4,000  Level Indianapolis Center
Mon 09:26:55 AM 40.0864 -82.7950 82° East 219 252 4,000 -222 Level Indianapolis Center
Mon 09:27:45 AM 40.0839 -82.8683 267° West 206 237 3,800 -387 Descending Indianapolis Center
Mon 09:27:57 AM 40.0847 -82.8853 274° West 214 246 3,600 -1,075 Descending Indianapolis Center
Mon 09:28:52 AM 40.0819 -82.9528 267° West 198 228 2,600 -1,065 Descending Indianapolis Center
Mon 09:28:59 AM 40.0814 -82.9572 261° West 208 239 2,500 -774 Descending Indianapolis Center
Mon 09:29:54 AM 40.0789 -83.0097 266° West 144 166 1,800 -774 Descending Indianapolis Center
Mon 09:30:01 AM 40.0789 -83.0142 270° West 177 204 1,700 -609 Descending Indianapolis Center
Mon 09:31:03 AM 40.0778 -83.0669 268° West 154 177 1,100 -581 Descending Indianapolis Center

Login

Don't have an account? Register now (free) for customized features, flight alerts, and more!